Denver, Colorado
Traffic Map
Current Weather Conditions
Denver, Colorado
Overcast
Overcast

Feels Like: 0°
Wind Chill: Ceiling: 6500
Heat Index: Visibility: 10mi
Dew Point: -3° Wind: 7mph
Humidity: 64% Direction: 320° (NW)
Pressure: 30.07in Gusts: 0mph
Raw Report DataKBKF 310358Z 32006KT 10SM SCT040 OVC065 03/M03 A3007 RMK AO2A SLP180 T00311031
Traffic Incident Summary
Active as of:
Severity:
Category:
InformationThere was an issue retrieving the traffic information for this location. Please try a different location or try again shortly.
Advertisements
Track Severe Weather on mobile